Time;durP1;ratioP1;P1;durP2;ratioP2;P2;SDS_P1;SDS_P2;PMS_P1;PMS_P2;Temp;Humidity;BMP_temperature;BMP_pressure;BME280_temperature;BME280_humidity;BME280_pressure;Samples;Min_cycle;Max_cycle;Signal;HPM_P1;HPM_P2
2021/05/10 00:01:47;;;;;;;5.80;3.20;;;;;;;30.87;28.02;99699.59;5052047;28;20952;-51
2021/05/10 00:04:14;;;;;;;8.00;3.17;;;;;;;31.03;27.69;99710.16;5053928;28;20462;-48
2021/05/10 00:06:41;;;;;;;8.10;3.27;;;;;;;31.19;27.82;99703.88;5056726;28;20480;-50
2021/05/10 00:09:08;;;;;;;6.20;3.10;;;;;;;31.02;28.23;99712.91;5057926;28;20515;-52
2021/05/10 00:11:35;;;;;;;8.30;3.13;;;;;;;31.35;27.43;99710.03;5056108;28;20482;-49
2021/05/10 00:14:03;;;;;;;5.53;2.80;;;;;;;30.89;28.02;99710.13;5057836;28;20459;-49
2021/05/10 00:16:30;;;;;;;7.80;3.40;;;;;;;30.18;29.25;99707.97;5056453;28;20503;-52
2021/05/10 00:18:57;;;;;;;4.63;2.90;;;;;;;29.92;29.33;99710.28;5057677;28;20461;-50
2021/05/10 00:21:24;;;;;;;6.80;3.00;;;;;;;29.40;29.94;99712.19;5055880;28;20489;-52
2021/05/10 00:23:51;;;;;;;12.00;4.53;;;;;;;29.69;29.51;99711.56;5057651;28;20455;-50
2021/05/10 00:26:17;;;;;;;5.40;2.90;;;;;;;29.86;29.43;99713.28;5056446;28;20498;-54
2021/05/10 00:28:44;;;;;;;4.90;3.00;;;;;;;29.68;29.36;99713.34;5057542;28;20479;-49
2021/05/10 00:31:11;;;;;;;6.30;3.20;;;;;;;29.58;29.65;99714.81;5056114;28;20779;-50
2021/05/10 00:33:38;;;;;;;6.57;2.97;;;;;;;29.82;28.83;99717.06;5057586;28;20558;-48
2021/05/10 00:36:05;;;;;;;5.63;3.20;;;;;;;30.18;28.22;99707.97;5056253;28;20455;-48
2021/05/10 00:38:32;;;;;;;7.77;3.93;;;;;;;29.64;29.29;99719.78;5057651;28;20494;-48
2021/05/10 00:40:59;;;;;;;6.13;2.73;;;;;;;29.96;28.75;99719.81;5056015;28;20465;-52
2021/05/10 00:43:25;;;;;;;7.27;3.10;;;;;;;29.71;28.78;99721.16;5057673;28;20878;-53
2021/05/10 00:45:52;;;;;;;6.67;3.10;;;;;;;29.41;29.08;99715.69;5056548;28;20467;-49
2021/05/10 00:48:19;;;;;;;6.70;3.00;;;;;;;28.71;29.30;99717.47;5057209;28;20509;-54
2021/05/10 00:50:45;;;;;;;6.33;3.53;;;;;;;29.60;28.31;99713.78;5057251;28;20463;-49
2021/05/10 00:53:12;;;;;;;8.43;3.07;;;;;;;29.22;28.69;99720.19;5056906;28;20542;-50
2021/05/10 00:55:39;;;;;;;5.40;2.60;;;;;;;29.67;28.21;99724.91;5057582;28;20463;-49
2021/05/10 00:58:06;;;;;;;6.50;2.63;;;;;;;29.00;28.60;99720.44;5056334;28;20490;-48
2021/05/10 01:00:35;;;;;;;6.27;2.73;;;;;;;29.23;27.96;99719.22;5057093;28;20541;-51
2021/05/10 01:03:02;;;;;;;7.27;3.00;;;;;;;29.77;27.54;99715.50;5056074;28;20570;-50
2021/05/10 01:05:29;;;;;;;6.93;2.67;;;;;;;29.60;27.32;99712.91;5057374;28;20889;-51
2021/05/10 01:07:55;;;;;;;6.20;2.80;;;;;;;29.33;27.77;99716.09;5056008;28;20925;-51
2021/05/10 01:10:24;;;;;;;5.27;2.80;;;;;;;29.94;27.21;99711.03;5057036;28;20490;-50
2021/05/10 01:12:52;;;;;;;7.43;3.30;;;;;;;30.51;26.53;99709.66;5055780;28;20517;-55
2021/05/10 01:15:21;;;;;;;6.67;2.70;;;;;;;30.65;26.25;99702.66;5056583;28;20490;-52
2021/05/10 01:17:51;;;;;;;5.33;2.30;;;;;;;30.61;26.02;99704.63;5055263;28;20798;-50
2021/05/10 01:20:18;;;;;;;5.83;2.70;;;;;;;30.62;26.37;99709.00;5056959;28;20456;-51
2021/05/10 01:22:48;;;;;;;5.27;2.80;;;;;;;30.71;26.04;99697.00;5055728;28;20576;-51
2021/05/10 01:25:41;;;;;;;5.30;2.37;;;;;;;30.38;26.34;99700.63;5057271;28;20462;-51
2021/05/10 01:28:08;;;;;;;7.23;2.90;;;;;;;30.40;26.46;99701.44;5053384;28;20479;-53
2021/05/10 01:30:36;;;;;;;6.37;3.10;;;;;;;30.44;26.05;99710.94;5056985;28;20567;-50
2021/05/10 01:33:04;;;;;;;7.40;3.13;;;;;;;30.27;26.38;99702.13;5056296;28;20472;-49
2021/05/10 01:35:33;;;;;;;5.70;2.60;;;;;;;30.01;26.55;99709.78;5057589;28;20465;-50
2021/05/10 01:38:00;;;;;;;6.17;3.00;;;;;;;30.00;26.51;99707.19;5055815;28;20479;-52
2021/05/10 01:40:28;;;;;;;7.83;2.93;;;;;;;30.09;26.19;99708.50;5057058;28;20539;-52
2021/05/10 01:42:55;;;;;;;6.83;2.77;;;;;;;29.70;26.48;99714.13;5055640;28;20476;-51
2021/05/10 01:45:23;;;;;;;7.80;2.63;;;;;;;28.95;27.34;99707.41;5057524;28;20455;-50
2021/05/10 01:47:50;;;;;;;6.70;3.10;;;;;;;28.81;27.95;99709.91;5055995;28;20546;-52
2021/05/10 01:50:18;;;;;;;5.83;3.10;;;;;;;28.82;27.59;99698.34;5057066;28;20483;-51
2021/05/10 01:52:45;;;;;;;6.20;2.90;;;;;;;28.82;27.52;99711.63;5055799;28;20786;-50
2021/05/10 01:55:13;;;;;;;7.00;2.90;;;;;;;28.64;27.69;99708.97;5057163;28;20908;-49
2021/05/10 01:57:40;;;;;;;4.70;2.70;;;;;;;28.34;28.27;99711.34;5055484;28;21387;-50
2021/05/10 02:00:10;;;;;;;6.20;2.80;;;;;;;28.63;27.63;99712.56;5056823;28;20991;-47
2021/05/10 02:02:37;;;;;;;4.67;2.27;;;;;;;28.03;28.49;99708.34;5055939;28;20493;-49
2021/05/10 02:05:15;;;;;;;5.63;2.77;;;;;;;27.99;28.39;99712.94;5057111;28;20451;-50
2021/05/10 02:07:43;;;;;;;7.30;2.80;;;;;;;28.49;27.80;99709.75;5055582;28;20924;-50
2021/05/10 02:10:13;;;;;;;7.83;2.90;;;;;;;28.52;27.71;99713.09;5056822;28;20858;-51
2021/05/10 02:12:40;;;;;;;10.50;2.70;;;;;;;28.69;27.51;99712.25;5055498;28;20485;-51
2021/05/10 02:15:10;;;;;;;5.30;2.47;;;;;;;28.60;27.72;99709.19;5056996;28;20459;-51
2021/05/10 02:17:37;;;;;;;8.13;2.57;;;;;;;28.61;27.16;99703.78;5054227;28;20480;-51
2021/05/10 02:20:06;;;;;;;5.87;3.10;;;;;;;28.83;27.18;99700.94;5056345;28;20465;-50
2021/05/10 02:22:33;;;;;;;6.63;3.63;;;;;;;28.90;27.21;99704.13;5055232;28;20943;-53
2021/05/10 02:24:59;;;;;;;7.40;3.40;;;;;;;28.63;27.33;99709.91;5056624;28;20454;-50
2021/05/10 02:27:27;;;;;;;5.67;2.53;;;;;;;28.21;27.63;99711.06;5054733;28;20799;-52
2021/05/10 02:29:53;;;;;;;9.53;2.30;;;;;;;28.39;27.48;99715.50;5056236;28;20496;-54
2021/05/10 02:32:20;;;;;;;4.57;2.20;;;;;;;28.22;28.03;99710.16;5055067;28;20486;-51
2021/05/10 02:34:48;;;;;;;6.30;2.43;;;;;;;28.37;27.68;99711.19;5056277;28;20462;-50
2021/05/10 02:37:16;;;;;;;5.17;2.40;;;;;;;28.33;27.54;99713.13;5055145;28;20518;-50
2021/05/10 02:39:43;;;;;;;14.37;2.70;;;;;;;28.06;27.70;99716.16;5056204;28;20458;-52
2021/05/10 02:42:09;;;;;;;7.10;2.60;;;;;;;27.62;28.15;99719.97;5055004;28;20570;-48
2021/05/10 02:44:37;;;;;;;5.90;2.47;;;;;;;27.96;27.58;99722.84;5056079;28;20553;-53
2021/05/10 02:47:03;;;;;;;6.83;2.57;;;;;;;27.83;28.04;99726.06;5054821;28;20563;-48
2021/05/10 02:49:30;;;;;;;8.13;2.83;;;;;;;27.96;27.85;99728.13;5055711;28;20484;-50
2021/05/10 02:51:57;;;;;;;4.83;2.07;;;;;;;27.93;27.68;99738.91;5054794;28;20475;-49
2021/05/10 02:54:23;;;;;;;5.90;2.50;;;;;;;27.60;28.26;99738.59;5056253;28;20771;-48
2021/05/10 02:56:50;;;;;;;5.20;2.33;;;;;;;28.13;27.47;99741.44;5054741;28;20786;-49
2021/05/10 02:59:17;;;;;;;4.57;2.27;;;;;;;28.07;27.76;99733.78;5056089;28;20458;-50
2021/05/10 03:01:44;;;;;;;6.83;2.43;;;;;;;28.10;27.57;99730.97;5054692;28;20557;-53
2021/05/10 03:04:11;;;;;;;5.13;2.50;;;;;;;28.46;27.04;99731.97;5055960;28;20456;-51
2021/05/10 03:06:37;;;;;;;6.17;2.70;;;;;;;28.68;26.48;99730.88;5055181;28;20477;-52
2021/05/10 03:09:04;;;;;;;4.40;2.30;;;;;;;28.93;26.17;99722.56;5055542;28;20496;-49
2021/05/10 03:11:31;;;;;;;7.27;2.53;;;;;;;29.42;25.85;99715.59;5054179;28;20488;-54
2021/05/10 03:13:57;;;;;;;6.10;2.20;;;;;;;29.82;25.17;99723.22;5055860;28;20553;-51
2021/05/10 03:16:24;;;;;;;5.93;2.90;;;;;;;29.06;26.21;99730.75;5054131;28;20479;-53
2021/05/10 03:18:52;;;;;;;7.00;2.90;;;;;;;28.54;27.13;99737.75;5055604;28;20461;-51
2021/05/10 03:21:19;;;;;;;8.50;2.90;;;;;;;28.61;27.05;99740.94;5054179;28;20466;-49
2021/05/10 03:23:45;;;;;;;5.57;2.60;;;;;;;28.43;27.15;99743.59;5055550;28;20553;-52
2021/05/10 03:26:12;;;;;;;5.77;2.33;;;;;;;28.83;26.99;99755.78;5054399;28;20820;-50
2021/05/10 03:28:39;;;;;;;5.63;2.50;;;;;;;28.96;26.53;99756.03;5055435;28;20469;-48
2021/05/10 03:31:05;;;;;;;6.07;2.60;;;;;;;28.06;27.51;99763.00;5053439;28;20486;-53
2021/05/10 03:33:32;;;;;;;7.77;2.83;;;;;;;28.17;27.75;99764.25;5055604;28;20463;-51
2021/05/10 03:36:00;;;;;;;8.50;2.30;;;;;;;28.18;27.82;99765.06;5054319;28;20555;-50
2021/05/10 03:38:26;;;;;;;6.17;2.73;;;;;;;28.20;27.28;99765.00;5055370;28;20458;-50
2021/05/10 03:40:53;;;;;;;4.70;2.53;;;;;;;27.97;28.05;99772.25;5053936;28;20463;-51
2021/05/10 03:43:19;;;;;;;7.53;3.00;;;;;;;28.03;28.06;99774.59;5055152;28;20485;-48
2021/05/10 03:45:52;;;;;;;7.17;2.70;;;;;;;27.97;27.57;99782.84;5055611;28;20452;-52
2021/05/10 03:48:19;;;;;;;6.73;3.90;;;;;;;27.80;28.38;99794.22;5054982;28;20472;-48
2021/05/10 03:50:45;;;;;;;4.90;2.90;;;;;;;28.09;28.13;99784.94;5054873;28;20580;-52
2021/05/10 03:53:13;;;;;;;11.23;2.63;;;;;;;28.03;27.89;99782.56;5054997;28;20913;-53
2021/05/10 03:55:39;;;;;;;6.30;3.10;;;;;;;28.62;27.05;99776.28;5055470;28;20469;-54
2021/05/10 03:58:07;;;;;;;7.47;2.63;;;;;;;28.76;27.15;99772.97;5053977;28;20828;-52
2021/05/10 04:00:33;;;;;;;7.00;2.53;;;;;;;28.92;26.85;99776.56;5055095;28;20483;-52
2021/05/10 04:03:01;;;;;;;4.60;2.23;;;;;;;29.06;26.50;99775.88;5054355;28;20473;-53
2021/05/10 04:05:51;;;;;;;7.77;3.50;;;;;;;28.86;26.46;99776.88;5055311;28;20456;-50
2021/05/10 04:08:40;;;;;;;6.80;2.70;;;;;;;28.57;27.05;99773.88;5054823;28;20473;-49
2021/05/10 04:11:10;;;;;;;6.93;3.07;;;;;;;28.74;27.05;99772.16;5053519;28;20473;-52
2021/05/10 04:13:38;;;;;;;6.47;2.60;;;;;;;29.28;26.45;99772.13;5055267;28;20484;-53
2021/05/10 04:16:06;;;;;;;18.83;10.07;;;;;;;29.34;26.05;99784.22;5053957;28;20462;-49
2021/05/10 04:18:33;;;;;;;14.50;5.40;;;;;;;28.64;26.97;99785.88;5054981;28;20450;-49
2021/05/10 04:21:00;;;;;;;13.50;7.50;;;;;;;28.82;26.97;99785.91;5053470;28;20552;-49
2021/05/10 04:23:28;;;;;;;10.53;5.50;;;;;;;29.04;26.35;99784.84;5055086;28;20487;-50
2021/05/10 04:25:55;;;;;;;5.80;2.63;;;;;;;28.90;26.74;99786.41;5054020;28;20545;-50
2021/05/10 04:28:23;;;;;;;8.27;4.83;;;;;;;29.16;26.34;99792.19;5054931;28;20985;-52
2021/05/10 04:30:51;;;;;;;6.00;3.10;;;;;;;29.31;26.08;99795.84;5053279;28;20907;-50
2021/05/10 04:33:25;;;;;;;9.10;3.07;;;;;;;28.82;26.75;99799.19;5054622;28;20482;-49
2021/05/10 04:35:52;;;;;;;14.27;7.90;;;;;;;29.44;26.26;99785.44;5054011;28;20466;-50
2021/05/10 04:38:19;;;;;;;6.20;2.93;;;;;;;29.46;26.09;99791.53;5054984;28;20496;-50
2021/05/10 04:40:46;;;;;;;5.53;3.00;;;;;;;29.51;25.79;99799.28;5054498;28;20454;-48
2021/05/10 04:43:13;;;;;;;15.30;6.60;;;;;;;29.48;26.14;99794.97;5054314;28;20457;-50
2021/05/10 04:45:39;;;;;;;16.97;10.17;;;;;;;28.84;27.51;99805.25;5054630;28;20468;-52
2021/05/10 04:48:06;;;;;;;9.83;3.03;;;;;;;29.51;26.33;99804.59;5052285;28;20882;-51
2021/05/10 04:50:33;;;;;;;6.80;2.90;;;;;;;29.89;25.62;99796.34;5054943;28;20787;-50
2021/05/10 04:52:59;;;;;;;6.70;2.40;;;;;;;29.26;26.47;99794.38;5056877;28;20484;-49
2021/05/10 04:55:26;;;;;;;6.70;2.90;;;;;;;29.42;26.27;99795.28;5058137;28;20554;-49
2021/05/10 04:57:54;;;;;;;14.97;7.60;;;;;;;29.34;26.94;99792.16;5056854;28;20930;-52
2021/05/10 05:00:21;;;;;;;13.00;6.57;;;;;;;29.47;26.92;99793.28;5057812;28;20461;-50
2021/05/10 05:02:48;;;;;;;7.73;3.03;;;;;;;29.36;26.73;99791.16;5056416;28;20558;-50
2021/05/10 05:05:14;;;;;;;7.30;3.30;;;;;;;29.65;26.00;99790.59;5058181;28;20465;-51
2021/05/10 05:07:42;;;;;;;8.67;3.40;;;;;;;29.35;26.90;99788.56;5056563;28;20481;-51
2021/05/10 05:10:10;;;;;;;5.87;2.90;;;;;;;29.61;26.50;99783.72;5057639;28;20569;-48
2021/05/10 05:12:37;;;;;;;9.67;4.40;;;;;;;29.74;26.36;99784.75;5056095;28;20480;-52
2021/05/10 05:15:06;;;;;;;8.67;5.00;;;;;;;29.27;27.21;99785.47;5057636;28;20461;-50
2021/05/10 05:17:33;;;;;;;7.27;3.57;;;;;;;29.44;26.74;99787.22;5056129;28;20567;-51
2021/05/10 05:20:00;;;;;;;8.10;2.97;;;;;;;29.66;26.40;99789.63;5057344;28;20545;-52
2021/05/10 05:22:26;;;;;;;6.83;3.30;;;;;;;29.58;26.96;99781.22;5056311;28;20580;-49
2021/05/10 05:24:56;;;;;;;5.67;2.90;;;;;;;29.23;27.09;99788.25;5057546;28;20512;-54
2021/05/10 05:27:23;;;;;;;8.63;2.57;;;;;;;29.45;26.81;99776.53;5056366;28;20904;-50
2021/05/10 05:29:49;;;;;;;6.93;2.53;;;;;;;29.80;26.33;99782.72;5056714;28;20489;-52
2021/05/10 05:32:17;;;;;;;5.67;2.50;;;;;;;29.68;26.53;99789.56;5056100;28;20502;-49
2021/05/10 05:34:43;;;;;;;10.73;3.00;;;;;;;29.66;26.70;99781.66;5057368;28;20494;-49
2021/05/10 05:37:10;;;;;;;5.33;2.40;;;;;;;29.42;26.79;99779.34;5056295;28;20942;-52
2021/05/10 05:39:36;;;;;;;6.13;2.80;;;;;;;29.29;27.35;99772.97;5057297;28;20545;-51
2021/05/10 05:42:03;;;;;;;6.80;2.30;;;;;;;28.90;27.53;99780.25;5055964;28;20494;-52
2021/05/10 05:44:35;;;;;;;5.30;2.70;;;;;;;29.32;27.06;99772.81;5057414;28;20455;-52
2021/05/10 05:47:03;;;;;;;6.67;2.50;;;;;;;29.53;26.83;99776.16;5056186;28;20482;-51
2021/05/10 05:49:34;;;;;;;10.33;2.77;;;;;;;29.82;26.77;99762.25;5057235;28;20578;-52
2021/05/10 05:52:03;;;;;;;5.77;2.40;;;;;;;29.38;27.55;99761.88;5056164;28;20488;-49
2021/05/10 05:54:29;;;;;;;6.00;2.30;;;;;;;29.57;27.12;99766.22;5057269;28;20463;-51
2021/05/10 05:56:56;;;;;;;10.17;2.83;;;;;;;29.67;26.92;99786.03;5055706;28;20487;-48
2021/05/10 05:59:23;;;;;;;5.77;2.23;;;;;;;29.68;26.96;99792.22;5057336;28;20467;-51
2021/05/10 06:01:49;;;;;;;6.50;2.80;;;;;;;28.92;28.11;99803.09;5054927;28;20491;-49
2021/05/10 06:04:16;;;;;;;8.43;2.90;;;;;;;29.67;27.12;99804.63;5056608;28;20453;-51
2021/05/10 06:06:43;;;;;;;8.67;2.97;;;;;;;28.85;27.91;99814.94;5055809;28;20482;-49
2021/05/10 06:09:11;;;;;;;12.00;3.00;;;;;;;29.34;27.55;99818.72;5056815;28;20466;-52
2021/05/10 06:11:38;;;;;;;11.63;3.17;;;;;;;29.19;27.97;99823.03;5055159;28;20479;-51
2021/05/10 06:14:04;;;;;;;8.30;2.50;;;;;;;29.68;27.02;99816.13;5057079;28;20455;-49
2021/05/10 06:16:31;;;;;;;7.33;3.10;;;;;;;29.28;27.65;99803.13;5055475;28;20928;-50
2021/05/10 06:18:58;;;;;;;7.97;2.90;;;;;;;28.91;28.30;99801.41;5056770;28;20465;-51
2021/05/10 06:21:26;;;;;;;5.40;2.50;;;;;;;29.01;28.14;99806.25;5055253;28;20471;-51
2021/05/10 06:23:54;;;;;;;7.53;2.87;;;;;;;29.17;28.39;99809.81;5056638;28;20482;-49
2021/05/10 06:26:20;;;;;;;7.73;3.10;;;;;;;29.28;28.06;99817.25;5055357;28;20573;-50
2021/05/10 06:28:47;;;;;;;7.73;2.77;;;;;;;29.28;28.47;99814.59;5056732;28;20561;-52
2021/05/10 06:31:14;;;;;;;10.63;2.80;;;;;;;29.80;27.47;99803.97;5054744;28;20490;-51
2021/05/10 06:33:44;;;;;;;7.40;3.17;;;;;;;29.17;28.03;99824.91;5056561;28;20462;-49
2021/05/10 06:36:11;;;;;;;9.00;3.20;;;;;;;29.61;27.47;99831.53;5054989;28;20942;-52
2021/05/10 06:38:37;;;;;;;9.13;2.50;;;;;;;29.59;27.73;99838.72;5056320;28;20552;-55
2021/05/10 06:41:05;;;;;;;6.30;3.03;;;;;;;29.53;28.16;99828.44;5046420;28;20487;-52
2021/05/10 06:43:31;;;;;;;9.50;2.80;;;;;;;29.28;28.43;99825.22;5055276;28;20482;-49
2021/05/10 06:45:58;;;;;;;7.77;2.50;;;;;;;29.72;28.07;99822.97;5055190;28;20462;-51
2021/05/10 06:48:29;;;;;;;6.10;3.30;;;;;;;29.36;28.20;99832.78;5055978;28;20577;-53
2021/05/10 06:50:56;;;;;;;9.83;3.90;;;;;;;28.36;29.51;99839.41;5054525;28;20493;-50
2021/05/10 06:53:22;;;;;;;6.30;3.37;;;;;;;29.11;28.73;99850.84;5056114;28;20491;-51
2021/05/10 06:55:51;;;;;;;7.50;3.60;;;;;;;29.41;28.39;99846.69;5055369;28;20462;-50
2021/05/10 06:58:18;;;;;;;5.70;3.03;;;;;;;29.80;27.62;99851.81;5055946;28;20494;-48
2021/05/10 07:00:45;;;;;;;6.00;3.10;;;;;;;29.87;27.81;99843.44;5055715;28;20467;-54
2021/05/10 07:03:12;;;;;;;14.83;3.13;;;;;;;30.03;27.57;99843.47;5055361;28;20471;-49
2021/05/10 07:05:39;;;;;;;9.00;2.60;;;;;;;30.24;27.24;99840.59;5055804;28;20881;-48
2021/05/10 07:08:09;;;;;;;7.67;3.07;;;;;;;30.62;27.14;99835.84;5054260;28;20478;-49
2021/05/10 07:10:36;;;;;;;5.83;2.90;;;;;;;30.30;27.33;99824.28;5055616;28;20483;-52
2021/05/10 07:13:02;;;;;;;7.33;3.17;;;;;;;30.70;26.95;99825.66;5054147;28;20945;-51
2021/05/10 07:15:30;;;;;;;14.20;4.80;;;;;;;30.93;26.70;99829.66;5055743;28;20459;-54
2021/05/10 07:18:06;;;;;;;7.47;3.23;;;;;;;30.87;26.78;99831.81;5054239;28;20838;-49
2021/05/10 07:20:34;;;;;;;8.87;3.10;;;;;;;30.26;27.65;99840.50;5055393;28;20447;-51
2021/05/10 07:23:01;;;;;;;6.73;3.30;;;;;;;30.57;27.28;99839.66;5053847;28;20470;-51
2021/05/10 07:25:28;;;;;;;7.50;3.50;;;;;;;30.94;26.78;99833.16;5055654;28;20451;-50
2021/05/10 07:27:54;;;;;;;9.00;3.43;;;;;;;31.05;26.82;99832.53;5054341;28;20472;-51
2021/05/10 07:30:21;;;;;;;6.90;3.20;;;;;;;31.33;26.59;99833.59;5055103;28;20932;-50
2021/05/10 07:32:49;;;;;;;8.40;3.10;;;;;;;31.53;26.08;99824.41;5053758;28;20525;-52
2021/05/10 07:35:16;;;;;;;12.37;4.30;;;;;;;31.39;26.53;99834.06;5053722;28;20928;-53
2021/05/10 07:37:42;;;;;;;6.70;2.80;;;;;;;31.54;25.98;99842.09;5054061;28;20482;-50
2021/05/10 07:40:10;;;;;;;11.70;3.30;;;;;;;31.51;26.36;99842.28;5054979;28;20456;-51
2021/05/10 07:42:36;;;;;;;7.53;3.30;;;;;;;31.20;26.71;99849.41;5054034;28;20794;-53
2021/05/10 07:45:04;;;;;;;20.00;7.77;;;;;;;31.26;26.95;99843.72;5037756;28;20538;-52
2021/05/10 07:47:30;;;;;;;6.53;3.10;;;;;;;31.64;26.13;99829.91;5033763;28;20816;-50
2021/05/10 07:49:58;;;;;;;4.70;2.73;;;;;;;31.57;26.69;99833.06;5041035;28;20483;-51
2021/05/10 07:52:25;;;;;;;39.17;19.07;;;;;;;31.97;26.44;99835.06;5053930;28;20566;-53
2021/05/10 07:54:52;;;;;;;12.17;5.17;;;;;;;32.32;25.68;99840.84;5055095;28;20546;-48
2021/05/10 07:57:19;;;;;;;7.10;3.20;;;;;;;32.49;25.45;99838.06;5053526;28;20931;-53
2021/05/10 07:59:48;;;;;;;14.83;4.20;;;;;;;32.18;25.70;99835.50;5054664;28;20774;-50
2021/05/10 08:02:14;;;;;;;10.40;3.60;;;;;;;32.06;25.87;99842.50;5053856;28;20483;-50
2021/05/10 08:04:41;;;;;;;13.63;5.63;;;;;;;32.91;25.04;99843.34;5055301;28;20822;-50
2021/05/10 08:07:11;;;;;;;10.37;3.70;;;;;;;33.11;25.00;99844.72;5053834;28;20790;-50
2021/05/10 08:09:38;;;;;;;8.73;3.30;;;;;;;32.57;25.51;99851.75;5042652;28;20535;-55
2021/05/10 08:12:05;;;;;;;16.67;6.60;;;;;;;32.70;25.29;99852.66;5033850;28;20480;-52
2021/05/10 08:14:32;;;;;;;7.00;2.90;;;;;;;31.82;25.96;99845.72;5035291;28;20463;-55
2021/05/10 08:16:59;;;;;;;8.13;3.40;;;;;;;31.76;25.91;99857.63;5033889;28;20796;-50
2021/05/10 08:19:26;;;;;;;16.70;4.97;;;;;;;31.85;26.16;99853.56;5035009;28;20461;-52
2021/05/10 08:21:53;;;;;;;5.93;3.20;;;;;;;31.96;25.56;99854.69;5033544;28;20563;-52
2021/05/10 08:24:20;;;;;;;17.13;5.97;;;;;;;31.42;26.04;99864.16;5047790;28;20546;-53
2021/05/10 08:26:47;;;;;;;12.30;4.40;;;;;;;32.43;25.24;99861.53;5055838;28;20482;-54
2021/05/10 08:29:14;;;;;;;14.17;5.47;;;;;;;32.59;25.09;99863.19;5058583;28;20903;-52
2021/05/10 08:31:40;;;;;;;12.43;4.33;;;;;;;31.17;26.63;99860.25;5056892;28;20669;-53
2021/05/10 08:34:07;;;;;;;17.93;6.57;;;;;;;32.25;25.11;99862.66;5057816;28;20916;-54
2021/05/10 08:36:34;;;;;;;14.10;5.20;;;;;;;31.10;26.32;99865.94;5057011;28;20563;-51
2021/05/10 08:39:00;;;;;;;9.10;3.33;;;;;;;32.01;25.23;99861.47;5058126;28;20458;-50
2021/05/10 08:41:28;;;;;;;17.67;6.90;;;;;;;32.24;24.63;99874.31;5056165;28;20479;-49
2021/05/10 08:43:54;;;;;;;17.70;6.77;;;;;;;31.78;25.61;99877.03;5053955;28;20478;-49
2021/05/10 08:46:22;;;;;;;26.47;11.77;;;;;;;31.82;25.31;99877.72;5056528;28;20474;-49
2021/05/10 08:48:49;;;;;;;17.57;7.13;;;;;;;32.25;25.10;99879.50;5057792;28;20468;-52
2021/05/10 08:51:17;;;;;;;16.17;7.53;;;;;;;31.85;24.90;99876.69;5056141;28;20480;-54
2021/05/10 08:53:44;;;;;;;19.23;9.33;;;;;;;32.52;24.63;99883.22;5057737;28;20451;-54
2021/05/10 08:56:11;;;;;;;12.47;5.23;;;;;;;32.76;24.25;99880.78;5056391;28;20851;-52
2021/05/10 08:58:41;;;;;;;14.20;6.43;;;;;;;32.77;24.31;99884.28;5057841;28;20816;-52
2021/05/10 09:01:08;;;;;;;6.97;3.00;;;;;;;33.25;23.82;99868.66;5056002;28;20928;-55
2021/05/10 09:03:40;;;;;;;11.60;5.47;;;;;;;33.62;24.43;99880.50;5057367;28;20498;-55
2021/05/10 09:06:11;;;;;;;19.80;8.37;;;;;;;32.51;24.05;99878.84;5056755;28;20479;-54
2021/05/10 09:08:40;;;;;;;12.33;5.30;;;;;;;31.91;25.05;99882.50;5055238;28;20455;-52
2021/05/10 09:11:09;;;;;;;5.70;2.27;;;;;;;34.04;23.09;99865.06;5055300;28;20929;-54
2021/05/10 09:13:37;;;;;;;9.43;3.93;;;;;;;32.10;24.92;99876.03;5057260;28;20451;-52
2021/05/10 09:16:05;;;;;;;9.13;3.93;;;;;;;32.39;24.13;99870.63;5052212;28;20466;-53
2021/05/10 09:18:32;;;;;;;12.87;4.50;;;;;;;33.10;23.59;99861.66;5057323;28;20538;-54
2021/05/10 09:21:16;;;;;;;7.43;4.27;;;;;;;33.00;23.50;99859.63;5055337;28;20465;-55
2021/05/10 09:24:20;;;;;;;10.40;4.60;;;;;;;33.07;23.16;99856.53;5055668;28;20774;-53
2021/05/10 09:27:16;;;;;;;11.13;6.00;;;;;;;33.12;23.05;99857.09;5054618;28;20493;-53
2021/05/10 09:29:43;;;;;;;10.80;4.50;;;;;;;32.69;23.23;99858.09;5055234;28;20456;-55
2021/05/10 09:32:25;;;;;;;17.43;8.27;;;;;;;32.65;23.46;99857.44;5056017;28;20484;-55
2021/05/10 09:35:14;;;;;;;7.10;3.53;;;;;;;32.78;23.37;99864.66;5057092;28;20451;-55
2021/05/10 09:37:41;;;;;;;16.43;6.90;;;;;;;33.38;22.96;99862.47;5053342;28;20475;-54
2021/05/10 09:40:09;;;;;;;30.90;14.77;;;;;;;33.95;22.63;99857.69;5056758;28;20542;-51
2021/05/10 09:42:50;;;;;;;23.17;11.33;;;;;;;32.96;23.28;99870.63;5051465;28;20471;-48
2021/05/10 09:45:41;;;;;;;18.97;9.70;;;;;;;33.13;22.78;99874.84;5054004;28;20546;-53
2021/05/10 09:48:29;;;;;;;9.07;4.77;;;;;;;33.17;23.02;99886.16;5048148;28;20505;-51
2021/05/10 09:50:58;;;;;;;14.10;7.73;;;;;;;33.44;22.88;99888.78;5045479;28;20483;-52
2021/05/10 09:53:39;;;;;;;8.20;3.40;;;;;;;33.27;23.57;99888.09;5085562;28;20483;-54
2021/05/10 09:56:08;;;;;;;14.87;4.17;;;;;;;33.22;23.22;99889.38;5047088;28;20783;-53
2021/05/10 09:58:40;;;;;;;6.90;2.73;;;;;;;33.92;22.27;99881.94;5056448;28;20454;-53
2021/05/10 10:01:08;;;;;;;17.73;9.20;;;;;;;33.59;23.93;99886.03;5048188;28;20463;-52
2021/05/10 10:03:38;;;;;;;14.63;5.23;;;;;;;33.07;23.08;99877.91;5056015;28;20463;-53
2021/05/10 10:06:09;;;;;;;6.13;2.30;;;;;;;34.13;22.71;99871.56;5055176;28;20570;-54
2021/05/10 10:08:37;;;;;;;14.03;5.20;;;;;;;34.19;22.63;99867.63;5053689;28;20543;-55
2021/05/10 10:11:05;;;;;;;8.77;4.43;;;;;;;34.10;22.41;99874.50;5051601;28;20511;-52
2021/05/10 10:13:32;;;;;;;7.20;2.07;;;;;;;33.88;22.50;99873.28;5056091;28;20554;-53
2021/05/10 10:15:59;;;;;;;18.97;6.80;;;;;;;34.27;22.00;99880.41;5055130;28;20819;-54
2021/05/10 10:18:27;;;;;;;10.50;4.57;;;;;;;33.90;22.44;99868.72;5056185;28;20547;-53
2021/05/10 10:20:57;;;;;;;12.53;5.20;;;;;;;33.69;22.74;99865.72;5054362;28;20455;-54
2021/05/10 10:23:26;;;;;;;6.67;2.40;;;;;;;33.74;22.94;99871.63;5055331;28;20822;-51
2021/05/10 10:25:52;;;;;;;9.73;2.70;;;;;;;33.92;22.00;99877.47;5054754;28;20452;-50
2021/05/10 10:28:21;;;;;;;8.10;3.20;;;;;;;33.89;21.86;99871.47;5055715;28;20487;-52
2021/05/10 10:30:55;;;;;;;11.97;3.03;;;;;;;34.38;21.87;99867.13;5045954;28;20476;-51
2021/05/10 10:33:29;;;;;;;6.90;3.20;;;;;;;34.94;21.76;99872.91;5053675;28;20558;-53
2021/05/10 10:35:58;;;;;;;9.37;3.67;;;;;;;34.38;22.04;99859.09;5050507;28;20491;-53
2021/05/10 10:38:27;;;;;;;6.30;2.67;;;;;;;34.52;21.60;99859.91;5055997;28;20562;-53
2021/05/10 10:41:22;;;;;;;6.73;3.10;;;;;;;35.37;21.20;99850.06;5053586;28;20484;-53
2021/05/10 10:43:50;;;;;;;9.20;3.37;;;;;;;35.16;21.06;99852.56;5054560;28;20830;-54
2021/05/10 10:46:18;;;;;;;10.63;3.90;;;;;;;34.45;21.74;99856.84;5051269;28;20473;-53
2021/05/10 10:48:45;;;;;;;7.03;3.30;;;;;;;34.56;21.54;99848.91;5054843;28;20554;-53
2021/05/10 10:51:14;;;;;;;9.23;3.80;;;;;;;35.11;21.21;99858.28;5053903;28;20499;-52
2021/05/10 10:53:43;;;;;;;5.80;2.50;;;;;;;34.82;21.59;99854.13;5055406;28;20490;-54
2021/05/10 10:56:10;;;;;;;31.97;9.53;;;;;;;34.72;21.24;99859.34;5054606;28;20479;-50
2021/05/10 10:58:39;;;;;;;7.80;3.13;;;;;;;35.68;20.82;99866.47;5054881;28;20897;-55
2021/05/10 11:01:11;;;;;;;8.10;3.57;;;;;;;34.78;20.97;99851.78;5052490;28;20525;-53
2021/05/10 11:03:39;;;;;;;11.73;3.30;;;;;;;35.72;20.30;99845.63;5052823;28;20810;-50
2021/05/10 11:06:07;;;;;;;9.83;3.60;;;;;;;35.09;20.55;99845.00;5054059;28;20479;-50
2021/05/10 11:08:48;;;;;;;5.83;2.57;;;;;;;35.17;20.72;99836.38;5055363;28;20540;-52
2021/05/10 11:11:40;;;;;;;8.17;2.87;;;;;;;34.05;21.72;99842.69;5053400;28;20851;-48
2021/05/10 11:14:11;;;;;;;5.90;3.00;;;;;;;35.05;20.45;99856.88;5055919;28;20558;-48
2021/05/10 11:16:46;;;;;;;7.70;2.23;;;;;;;35.08;20.80;99851.34;5052378;28;20529;-50
2021/05/10 11:19:32;;;;;;;5.33;2.50;;;;;;;34.86;21.48;99865.47;5055215;28;20550;-48
2021/05/10 11:21:59;;;;;;;11.90;4.70;;;;;;;34.96;22.12;99862.94;5034192;28;20508;-48
2021/05/10 11:24:32;;;;;;;6.70;2.07;;;;;;;34.63;22.25;99864.47;5044665;28;20459;-50
2021/05/10 11:27:02;;;;;;;8.80;3.23;;;;;;;34.53;21.94;99864.28;5054135;28;20481;-49
2021/05/10 11:29:50;;;;;;;8.83;2.37;;;;;;;34.46;22.63;99856.69;5055344;28;20454;-48
2021/05/10 11:32:31;;;;;;;6.90;2.50;;;;;;;34.88;21.94;99856.34;5053999;28;20546;-49
2021/05/10 11:35:25;;;;;;;7.90;3.00;;;;;;;34.72;22.22;99858.47;5054662;28;20447;-49
2021/05/10 11:38:07;;;;;;;7.93;2.60;;;;;;;34.86;22.20;99860.13;5054056;28;20479;-51
2021/05/10 11:40:36;;;;;;;26.70;8.30;;;;;;;34.29;23.09;99868.66;5054867;28;20451;-52